Event-Kalender
Terminkalender Drucken Email help
Jahresansicht Monatsansicht Wochenansicht Heute Suche Zum ausgwählten Monat wechseln
Termine für
Donnerstag, 20. Juli 2017



JEvents v1.5.5e   Copyright © 2006-2011

Zufallsbild

Aktuelle Termine

Mo Di Mi Do Fr Sa So
26 27 28 29 30 1 2
3 4 5 6 7 8 9
10 11 12 13 14 15 16
17 18 19 20 21 22 23
24 25 26 27 28 29 30
31 1 2 3 4 5 6

Pilotenwetter

[source: ADDS]
METAR
EDDH 201020Z 25009KT 210V270 9999 SCT014 SCT030 BKN040 14/11 Q1017 TEMPO BKN012 =
TAF
TAF EDDH 200500Z 2006/2112 24005KT 9999 BKN040 TEMPO 2006/2015 4500 -RADZ BKN012 PROB30 TEMPO 2006/2010 2500 RADZ BKN007 BECMG 2007/2010 26010KT BECMG 2015/2018 25005KT TEMPO 2102/2108 3000 BR =